^^
Saratoga-Weather Station Historical Data
Daily Summary for July 22, 2021 Units:  English    Metric   Both
Daily Weekly Monthly Yearly Custom
  High: Low: Average:
Temperature: 31.5 °F 22.8 °F 26.8 °F
Dew Point: 27.9 °F 21.4 °F 24.6 °F
Humidity: 94% 85% 91%
Wind Speed: 2.9mph 0mph 0.6mph
Wind Gust: 8mph - -
Wind- - ESE
Pressure: 30.3 in 30.1 in -
Precipitation: 0 in    
Historical Graphs
 
 
Tabular Data for July 22, 2021
Time Temperature Dew Point Pressure Wind Wind Speed Wind Gust Humidity Rainfall Rate (Hourly) solar
08:35 23.9 °F 22.5 °F 30.3 in Calm     94% 0 in 5 W/m2
08:47 24.1 °F 22.6 °F 30.3 in Calm     94% 0 in 12 W/m2
08:52 24.3 °F 22.8 °F 30.3 in ESE 2 mph 2 mph 94% 0 in 16 W/m2
08:57 24.3 °F 22.8 °F 30.3 in Calm     94% 0 in 18 W/m2
09:02 24.4 °F 23 °F 30.3 in ESE 0.9 mph 1 mph 94% 0 in 19 W/m2
09:07 24.4 °F 23 °F 30.3 in ESE 0.9 mph 1 mph 94% 0 in 23 W/m2
09:12 24.6 °F 23.2 °F 30.3 in Calm     94% 0 in 28 W/m2
09:17 24.6 °F 23.2 °F 30.3 in ESE 0.9 mph 1 mph 94% 0 in 30 W/m2
09:22 24.8 °F 23.4 °F 30.3 in Calm     94% 0 in 32 W/m2
09:27 25 °F 23.5 °F 30.3 in Calm     94% 0 in 35 W/m2
09:32 25.2 °F 23.7 °F 30.3 in Calm   2 mph 94% 0 in 35 W/m2
09:37 25.3 °F 23.9 °F 30.3 in ESE 0.9 mph 2 mph 94% 0 in 33 W/m2
09:42 25.5 °F 24.1 °F 30.3 in Calm   3 mph 94% 0 in 30 W/m2
09:47 25.5 °F 24.1 °F 30.3 in Calm   1 mph 94% 0 in 30 W/m2
09:52 25.7 °F 24.3 °F 30.3 in Calm     94% 0 in 33 W/m2
09:57 25.7 °F 24.3 °F 30.3 in Calm   1 mph 94% 0 in 33 W/m2
10:02 25.7 °F 24.3 °F 30.3 in Calm   1 mph 94% 0 in 32 W/m2
10:07 25.9 °F 24.4 °F 30.3 in Calm   1 mph 94% 0 in 33 W/m2
10:12 25.9 °F 24.4 °F 30.3 in Calm     94% 0 in 37 W/m2
10:17 25.9 °F 24.1 °F 30.3 in East 0.9 mph 1 mph 93% 0 in 46 W/m2
10:22 26.1 °F 24.3 °F 30.3 in East 0.9 mph 2 mph 93% 0 in 42 W/m2
10:27 26.2 °F 24.8 °F 30.3 in East 2 mph 2 mph 94% 0 in 42 W/m2
10:32 26.2 °F 24.4 °F 30.3 in ESE 0.9 mph 2 mph 93% 0 in 51 W/m2
10:37 26.6 °F 24.8 °F 30.3 in Calm   3 mph 93% 0 in 49 W/m2
10:42 26.8 °F 25 °F 30.3 in Calm     93% 0 in 51 W/m2
10:47 27 °F 25.2 °F 30.3 in Calm   3 mph 93% 0 in 54 W/m2
10:52 27.1 °F 25.3 °F 30.3 in Calm     93% 0 in 54 W/m2
10:57 27.1 °F 25.3 °F 30.3 in Calm   1 mph 93% 0 in 56 W/m2
11:02 27.3 °F 25.5 °F 30.3 in ENE 0.9 mph 1 mph 93% 0 in 60 W/m2
11:07 27.7 °F 25.9 °F 30.3 in ENE 2 mph 3 mph 93% 0 in 62 W/m2
11:12 27.9 °F 25.9 °F 30.3 in ENE 2 mph 3 mph 92% 0 in 60 W/m2
11:17 28 °F 26.1 °F 30.3 in East 0.9 mph 2 mph 92% 0 in 60 W/m2
11:22 28.2 °F 26.2 °F 30.3 in Calm   1 mph 92% 0 in 62 W/m2
11:27 28.6 °F 26.2 °F 30.3 in Calm   4 mph 91% 0 in 62 W/m2
11:32 28.8 °F 26.4 °F 30.3 in ENE 2 mph 3 mph 91% 0 in 58 W/m2
11:37 28.8 °F 26.4 °F 30.3 in East 2 mph 2 mph 91% 0 in 60 W/m2
11:42 28.9 °F 26.4 °F 30.3 in ESE 2.9 mph 3 mph 90% 0 in 65 W/m2
11:47 29.1 °F 26.6 °F 30.3 in Calm   3 mph 90% 0 in 58 W/m2
11:52 29.1 °F 26.6 °F 30.3 in East 2 mph 2 mph 90% 0 in 56 W/m2
11:57 29.3 °F 26.8 °F 30.3 in Calm   4 mph 90% 0 in 58 W/m2
12:02 29.5 °F 27 °F 30.3 in Calm   2 mph 90% 0 in 51 W/m2
12:07 29.5 °F 26.6 °F 30.3 in East 2.9 mph 3 mph 89% 0 in 53 W/m2
12:13 29.7 °F 26.8 °F 30.3 in Calm   2 mph 89% 0 in 56 W/m2
12:18 29.7 °F 26.8 °F 30.3 in Calm   3 mph 89% 0 in 60 W/m2
12:23 29.8 °F 27 °F 30.2 in East 2 mph 2 mph 89% 0 in 63 W/m2
12:28 29.8 °F 27 °F 30.2 in East 2 mph 3 mph 89% 0 in 63 W/m2
12:33 30 °F 27.1 °F 30.2 in ESE 0.9 mph 3 mph 89% 0 in 62 W/m2
12:38 30.2 °F 27.3 °F 30.2 in ESE 0.9 mph 4 mph 89% 0 in 60 W/m2
12:43 30.4 °F 27.3 °F 30.2 in East 0.9 mph 2 mph 88% 0 in 49 W/m2
12:48 30.6 °F 27.5 °F 30.2 in SE 0.9 mph 2 mph 88% 0 in 49 W/m2
12:53 30.7 °F 27.7 °F 30.2 in ESE 0.9 mph 2 mph 88% 0 in 47 W/m2
12:58 30.9 °F 27.9 °F 30.2 in East 0.9 mph 4 mph 88% 0 in 44 W/m2
13:03 31.1 °F 27.7 °F 30.2 in East 2.9 mph 4 mph 87% 0 in 39 W/m2
13:08 31.3 °F 27.5 °F 30.2 in SE 0.9 mph 7 mph 86% 0 in 35 W/m2
13:13 31.3 °F 27.5 °F 30.2 in East 0.9 mph 4 mph 86% 0 in 37 W/m2
13:18 31.5 °F 27.5 °F 30.2 in Calm   7 mph 85% 0 in 35 W/m2
13:23 31.3 °F 27.3 °F 30.2 in ESE 2 mph 3 mph 85% 0 in 35 W/m2
13:28 31.3 °F 27.5 °F 30.2 in Calm   4 mph 86% 0 in 35 W/m2
13:33 31.3 °F 27.5 °F 30.2 in Calm   1 mph 86% 0 in 37 W/m2
13:38 30.9 °F 27.1 °F 30.2 in ESE 0.9 mph 4 mph 86% 0 in 37 W/m2
13:43 30.9 °F 27.1 °F 30.2 in South 0.9 mph 4 mph 86% 0 in 37 W/m2
13:48 30.7 °F 27.3 °F 30.2 in SE 0.9 mph 2 mph 87% 0 in 42 W/m2
13:53 30.7 °F 27.3 °F 30.2 in ESE 0.9 mph 7 mph 87% 0 in 44 W/m2
13:58 30.6 °F 27.1 °F 30.2 in ESE 0.9 mph 3 mph 87% 0 in 46 W/m2
14:08 30.6 °F 27.1 °F 30.2 in Calm   2 mph 87% 0 in 42 W/m2
14:13 30.6 °F 27.1 °F 30.2 in Calm   2 mph 87% 0 in 39 W/m2
14:18 30.6 °F 27.1 °F 30.2 in ESE 2.9 mph 3 mph 87% 0 in 37 W/m2
14:23 30.4 °F 27 °F 30.2 in Calm   1 mph 87% 0 in 37 W/m2
14:28 30.6 °F 27.1 °F 30.2 in SE 2.9 mph 4 mph 87% 0 in 35 W/m2
14:33 30.4 °F 27 °F 30.2 in ESE 0.9 mph 3 mph 87% 0 in 30 W/m2
14:38 30.4 °F 27 °F 30.2 in ESE 0.9 mph 3 mph 87% 0 in 28 W/m2
14:43 30.2 °F 26.8 °F 30.2 in Calm   2 mph 87% 0 in 25 W/m2
14:48 30 °F 26.6 °F 30.2 in East 0.9 mph 1 mph 87% 0 in 23 W/m2
14:53 29.8 °F 26.8 °F 30.2 in Calm   1 mph 88% 0 in 26 W/m2
14:58 29.8 °F 26.8 °F 30.2 in ESE 2.9 mph 3 mph 88% 0 in 28 W/m2
15:03 29.7 °F 26.6 °F 30.2 in Calm   6 mph 88% 0 in 26 W/m2
15:08 29.7 °F 26.6 °F 30.2 in SSE 0.9 mph 1 mph 88% 0 in 26 W/m2
15:13 29.5 °F 26.4 °F 30.2 in East 2 mph 4 mph 88% 0 in 26 W/m2
15:18 29.5 °F 26.4 °F 30.2 in ESE 0.9 mph 3 mph 88% 0 in 25 W/m2
15:23 29.5 °F 26.4 °F 30.2 in ESE 0.9 mph 1 mph 88% 0 in 25 W/m2
15:28 29.5 °F 26.4 °F 30.2 in ESE 2 mph 3 mph 88% 0 in 26 W/m2
15:33 29.3 °F 26.4 °F 30.2 in East 0.9 mph 2 mph 89% 0 in 25 W/m2
15:38 29.3 °F 26.2 °F 30.2 in ESE 0.9 mph 4 mph 88% 0 in 23 W/m2
15:43 29.1 °F 26.1 °F 30.2 in Calm   2 mph 88% 0 in 23 W/m2
15:48 29.1 °F 26.2 °F 30.2 in SE 2 mph 4 mph 89% 0 in 21 W/m2
15:53 29.1 °F 26.2 °F 30.2 in Calm   2 mph 89% 0 in 19 W/m2
15:58 28.9 °F 26.1 °F 30.2 in ESE 0.9 mph 2 mph 89% 0 in 18 W/m2
16:03 28.9 °F 26.1 °F 30.2 in Calm   2 mph 89% 0 in 16 W/m2
16:08 28.8 °F 25.9 °F 30.2 in Calm   2 mph 89% 0 in 14 W/m2
16:13 28.6 °F 25.7 °F 30.2 in Calm     89% 0 in 11 W/m2
16:18 28.4 °F 25.5 °F 30.2 in Calm   2 mph 89% 0 in 9 W/m2
16:23 28.2 °F 25.3 °F 30.2 in Calm   1 mph 89% 0 in 7 W/m2
16:28 28 °F 25.2 °F 30.2 in Calm   1 mph 89% 0 in 5 W/m2
16:33 27.9 °F 25 °F 30.2 in Calm   1 mph 89% 0 in 0 W/m2
16:38 27.7 °F 24.8 °F 30.2 in Calm     89% 0 in 0 W/m2
16:43 27.5 °F 25 °F 30.2 in Calm   2 mph 90% 0 in 0 W/m2
16:48 27.3 °F 24.8 °F 30.2 in Calm   1 mph 90% 0 in 0 W/m2
16:53 27.1 °F 24.6 °F 30.2 in ESE 0.9 mph 2 mph 90% 0 in 0 W/m2
16:58 27 °F 24.4 °F 30.2 in SSE 0.9 mph 1 mph 90% 0 in 0 W/m2
17:03 27 °F 24.6 °F 30.2 in Calm   2 mph 91% 0 in 0 W/m2
17:08 27 °F 24.6 °F 30.2 in ENE 0.9 mph 8 mph 91% 0 in 0 W/m2
17:13 27.1 °F 24.8 °F 30.2 in ESE 0.9 mph 3 mph 91% 0 in 0 W/m2
17:18 27.1 °F 24.8 °F 30.2 in ESE 0.9 mph 8 mph 91% 0 in 0 W/m2
17:23 27.1 °F 24.8 °F 30.2 in Calm   2 mph 91% 0 in 0 W/m2
17:28 27.1 °F 24.8 °F 30.2 in East 2 mph 6 mph 91% 0 in 0 W/m2
17:33 27.1 °F 24.8 °F 30.2 in ESE 2 mph 4 mph 91% 0 in 0 W/m2
17:38 27.1 °F 24.8 °F 30.2 in Calm   1 mph 91% 0 in 0 W/m2
17:43 27.1 °F 24.8 °F 30.2 in Calm   4 mph 91% 0 in 0 W/m2
17:48 27 °F 24.6 °F 30.2 in Calm   1 mph 91% 0 in 0 W/m2
17:53 26.8 °F 24.4 °F 30.2 in SE 0.9 mph 1 mph 91% 0 in 0 W/m2
17:58 26.6 °F 24.3 °F 30.2 in Calm   1 mph 91% 0 in 0 W/m2
18:03 26.4 °F 24.1 °F 30.2 in Calm   2 mph 91% 0 in 0 W/m2
18:08 26.2 °F 23.9 °F 30.2 in Calm     91% 0 in 0 W/m2
18:13 26.1 °F 23.7 °F 30.2 in Calm   2 mph 91% 0 in 0 W/m2
18:18 26.1 °F 23.7 °F 30.2 in Calm     91% 0 in 0 W/m2
18:23 25.9 °F 23.5 °F 30.2 in Calm   1 mph 91% 0 in 0 W/m2
18:28 25.5 °F 23.2 °F 30.2 in Calm     91% 0 in 0 W/m2
18:33 25.5 °F 23.5 °F 30.2 in Calm   2 mph 92% 0 in 0 W/m2
18:38 25.5 °F 23.5 °F 30.2 in Calm     92% 0 in 0 W/m2
18:43 25.3 °F 23.4 °F 30.2 in Calm   2 mph 92% 0 in 0 W/m2
18:48 25.3 °F 23.4 °F 30.2 in Calm     92% 0 in 0 W/m2
18:53 25.2 °F 23.2 °F 30.2 in Calm   1 mph 92% 0 in 0 W/m2
18:58 25.2 °F 23.2 °F 30.2 in Calm   1 mph 92% 0 in 0 W/m2
19:03 25 °F 23 °F 30.2 in Calm   4 mph 92% 0 in 0 W/m2
19:08 25 °F 23.2 °F 30.2 in Calm   1 mph 93% 0 in 0 W/m2
19:13 25 °F 23.2 °F 30.2 in ESE 2 mph 3 mph 93% 0 in 0 W/m2
19:18 25.2 °F 23.4 °F 30.2 in ESE 2 mph 3 mph 93% 0 in 0 W/m2
19:23 25.3 °F 23.5 °F 30.2 in SSE 0.9 mph 1 mph 93% 0 in 0 W/m2
19:28 25.3 °F 23.5 °F 30.2 in Calm   3 mph 93% 0 in 0 W/m2
19:33 25.3 °F 23.5 °F 30.2 in ESE 0.9 mph 4 mph 93% 0 in 0 W/m2
19:38 25.2 °F 23.4 °F 30.2 in Calm   3 mph 93% 0 in 0 W/m2
19:43 25.2 °F 23.4 °F 30.2 in Calm   4 mph 93% 0 in 0 W/m2
19:48 25.2 °F 23.4 °F 30.2 in Calm   6 mph 93% 0 in 0 W/m2
19:53 25.2 °F 23.4 °F 30.2 in SE 0.9 mph 3 mph 93% 0 in 0 W/m2
19:58 25.2 °F 23.4 °F 30.2 in SSE 0.9 mph 6 mph 93% 0 in 0 W/m2
20:03 25.2 °F 23.4 °F 30.2 in Calm   2 mph 93% 0 in 0 W/m2
20:08 25.3 °F 23.5 °F 30.2 in ESE 0.9 mph 1 mph 93% 0 in 0 W/m2
20:13 25.3 °F 23.5 °F 30.2 in SSE 2.9 mph 4 mph 93% 0 in 0 W/m2
20:18 25.3 °F 23.9 °F 30.2 in ESE 2.9 mph 3 mph 94% 0 in 0 W/m2
20:23 25.5 °F 24.1 °F 30.2 in SE 2.9 mph 5 mph 94% 0 in 0 W/m2
20:28 25.9 °F 24.4 °F 30.2 in ESE 2.9 mph 3 mph 94% 0 in 0 W/m2
20:33 25.9 °F 24.4 °F 30.2 in Calm   5 mph 94% 0 in 0 W/m2
20:38 25.9 °F 24.4 °F 30.2 in Calm   2 mph 94% 0 in 0 W/m2
20:43 25.9 °F 24.4 °F 30.2 in Calm     94% 0 in 0 W/m2
20:48 25.9 °F 24.4 °F 30.2 in Calm     94% 0 in 0 W/m2
20:53 25.9 °F 24.4 °F 30.2 in East 0.9 mph 1 mph 94% 0 in 0 W/m2
20:58 25.9 °F 24.4 °F 30.2 in Calm   2 mph 94% 0 in 0 W/m2
21:03 25.9 °F 24.4 °F 30.2 in Calm     94% 0 in 0 W/m2
21:08 25.7 °F 24.3 °F 30.2 in Calm     94% 0 in 0 W/m2
21:14 25.5 °F 24.1 °F 30.2 in Calm     94% 0 in 0 W/m2
21:19 25.5 °F 24.1 °F 30.2 in Calm     94% 0 in 0 W/m2
21:24 25.3 °F 23.5 °F 30.2 in Calm     93% 0 in 0 W/m2
21:29 25.2 °F 23.4 °F 30.2 in Calm     93% 0 in 0 W/m2
21:34 25 °F 23.2 °F 30.2 in Calm     93% 0 in 0 W/m2
21:39 25 °F 23.2 °F 30.2 in Calm     93% 0 in 0 W/m2
21:44 24.6 °F 22.8 °F 30.2 in Calm     93% 0 in 0 W/m2
21:49 24.4 °F 22.6 °F 30.2 in Calm     93% 0 in 0 W/m2
21:54 24.4 °F 22.6 °F 30.2 in Calm     93% 0 in 0 W/m2
21:59 24.3 °F 22.5 °F 30.2 in Calm     93% 0 in 0 W/m2
22:04 24.3 °F 22.5 °F 30.2 in Calm     93% 0 in 0 W/m2
22:09 24.1 °F 22.3 °F 30.2 in Calm     93% 0 in 0 W/m2
22:14 24.1 °F 22.6 °F 30.2 in Calm     94% 0 in 0 W/m2
22:19 23.9 °F 22.5 °F 30.2 in Calm     94% 0 in 0 W/m2
22:24 23.7 °F 22.3 °F 30.1 in Calm     94% 0 in 0 W/m2
22:29 23.7 °F 22.3 °F 30.1 in Calm     94% 0 in 0 W/m2
22:34 23.5 °F 21.7 °F 30.1 in Calm     93% 0 in 0 W/m2
22:39 23.5 °F 21.7 °F 30.1 in Calm     93% 0 in 0 W/m2
22:44 23.5 °F 22.1 °F 30.1 in Calm     94% 0 in 0 W/m2
22:49 23.4 °F 21.9 °F 30.1 in Calm     94% 0 in 0 W/m2
22:54 23.4 °F 21.9 °F 30.1 in Calm     94% 0 in 0 W/m2
22:59 23.4 °F 21.9 °F 30.1 in Calm     94% 0 in 0 W/m2
23:04 23.4 °F 21.9 °F 30.1 in Calm     94% 0 in 0 W/m2
23:09 23.2 °F 21.7 °F 30.1 in Calm     94% 0 in 0 W/m2
23:14 23.2 °F 21.7 °F 30.1 in Calm     94% 0 in 0 W/m2
23:19 23.2 °F 21.7 °F 30.1 in Calm     94% 0 in 0 W/m2
23:24 23 °F 21.6 °F 30.1 in Calm     94% 0 in 0 W/m2
23:29 23 °F 21.6 °F 30.1 in Calm     94% 0 in 0 W/m2
23:34 23 °F 21.6 °F 30.1 in Calm     94% 0 in 0 W/m2
23:39 22.8 °F 21.4 °F 30.1 in Calm     94% 0 in 0 W/m2
23:44 22.8 °F 21.4 °F 30.1 in Calm     94% 0 in 0 W/m2
23:49 22.8 °F 21.4 °F 30.1 in Calm     94% 0 in 0 W/m2
23:54 22.8 °F 21.4 °F 30.1 in Calm     94% 0 in 0 W/m2
23:59 23 °F 21.6 °F 30.1 in Calm     94% 0 in 0 W/m2
Juneau County Weather
Compliments of Weather Underground - 2 mb